sensor_id;sensor_type;location;lat;lon;timestamp;temperature;humidity
23089;DHT22;11713;48.506;8.966;2022-12-18T00:01:28;-9.10;99.90
23089;DHT22;11713;48.506;8.966;2022-12-18T00:03:55;-9.10;99.90
23089;DHT22;11713;48.506;8.966;2022-12-18T00:06:22;-9.10;99.90
23089;DHT22;11713;48.506;8.966;2022-12-18T00:08:48;-9.10;99.90
23089;DHT22;11713;48.506;8.966;2022-12-18T00:11:17;-9.10;99.90
23089;DHT22;11713;48.506;8.966;2022-12-18T00:13:43;-9.10;99.90
23089;DHT22;11713;48.506;8.966;2022-12-18T00:16:15;-9.10;99.90
23089;DHT22;11713;48.506;8.966;2022-12-18T00:18:42;-9.10;99.90
23089;DHT22;11713;48.506;8.966;2022-12-18T00:21:10;-9.20;99.90
23089;DHT22;11713;48.506;8.966;2022-12-18T00:23:37;-9.10;99.90
23089;DHT22;11713;48.506;8.966;2022-12-18T00:26:11;-9.10;99.90
23089;DHT22;11713;48.506;8.966;2022-12-18T00:28:40;-9.20;99.90
23089;DHT22;11713;48.506;8.966;2022-12-18T00:31:10;-9.20;99.90
23089;DHT22;11713;48.506;8.966;2022-12-18T00:33:37;-9.30;99.90
23089;DHT22;11713;48.506;8.966;2022-12-18T00:36:03;-9.20;99.90
23089;DHT22;11713;48.506;8.966;2022-12-18T00:38:31;-9.30;99.90
23089;DHT22;11713;48.506;8.966;2022-12-18T00:40:57;-9.40;99.90
23089;DHT22;11713;48.506;8.966;2022-12-18T00:43:24;-9.50;99.90
23089;DHT22;11713;48.506;8.966;2022-12-18T00:45:51;-9.60;99.90
23089;DHT22;11713;48.506;8.966;2022-12-18T00:48:17;-9.60;99.90
23089;DHT22;11713;48.506;8.966;2022-12-18T00:50:43;-9.50;99.90
23089;DHT22;11713;48.506;8.966;2022-12-18T00:53:10;-9.60;99.90
23089;DHT22;11713;48.506;8.966;2022-12-18T00:55:37;-9.70;99.90
23089;DHT22;11713;48.506;8.966;2022-12-18T00:58:04;-9.70;99.90
23089;DHT22;11713;48.506;8.966;2022-12-18T01:00:30;-9.80;99.90
23089;DHT22;11713;48.506;8.966;2022-12-18T01:02:56;-9.80;99.90
23089;DHT22;11713;48.506;8.966;2022-12-18T01:05:24;-9.70;99.90
23089;DHT22;11713;48.506;8.966;2022-12-18T01:07:50;-9.70;99.90
23089;DHT22;11713;48.506;8.966;2022-12-18T01:10:16;-9.70;99.90
23089;DHT22;11713;48.506;8.966;2022-12-18T01:12:42;-9.60;99.90
23089;DHT22;11713;48.506;8.966;2022-12-18T01:15:11;-9.70;99.90
23089;DHT22;11713;48.506;8.966;2022-12-18T01:17:37;-9.60;99.90
23089;DHT22;11713;48.506;8.966;2022-12-18T01:20:04;-9.50;99.90
23089;DHT22;11713;48.506;8.966;2022-12-18T01:22:32;-9.40;99.90
23089;DHT22;11713;48.506;8.966;2022-12-18T01:24:58;-9.30;99.90
23089;DHT22;11713;48.506;8.966;2022-12-18T01:27:24;-9.30;99.90
23089;DHT22;11713;48.506;8.966;2022-12-18T01:29:51;-9.40;99.90
23089;DHT22;11713;48.506;8.966;2022-12-18T01:32:19;-9.30;99.90
23089;DHT22;11713;48.506;8.966;2022-12-18T01:34:45;-9.40;99.90
23089;DHT22;11713;48.506;8.966;2022-12-18T01:37:11;-9.50;99.90
23089;DHT22;11713;48.506;8.966;2022-12-18T01:39:37;-9.50;99.90
23089;DHT22;11713;48.506;8.966;2022-12-18T01:42:11;-9.40;99.90
23089;DHT22;11713;48.506;8.966;2022-12-18T01:47:47;-9.40;99.90
23089;DHT22;11713;48.506;8.966;2022-12-18T01:52:52;-9.40;99.90
23089;DHT22;11713;48.506;8.966;2022-12-18T01:55:22;-9.50;99.90
23089;DHT22;11713;48.506;8.966;2022-12-18T01:57:52;-9.50;99.90
23089;DHT22;11713;48.506;8.966;2022-12-18T02:00:22;-9.40;99.90
23089;DHT22;11713;48.506;8.966;2022-12-18T02:02:50;-9.40;99.90
23089;DHT22;11713;48.506;8.966;2022-12-18T02:13:36;-9.50;99.90
23089;DHT22;11713;48.506;8.966;2022-12-18T02:25:44;-9.80;99.90
23089;DHT22;11713;48.506;8.966;2022-12-18T02:27:50;-9.80;99.90
23089;DHT22;11713;48.506;8.966;2022-12-18T02:30:20;-9.80;99.90
23089;DHT22;11713;48.506;8.966;2022-12-18T02:32:50;-9.80;99.90
23089;DHT22;11713;48.506;8.966;2022-12-18T02:35:24;-9.70;99.90
23089;DHT22;11713;48.506;8.966;2022-12-18T02:37:54;-9.80;99.90
23089;DHT22;11713;48.506;8.966;2022-12-18T02:40:22;-9.70;99.90
23089;DHT22;11713;48.506;8.966;2022-12-18T02:42:49;-9.60;99.90
23089;DHT22;11713;48.506;8.966;2022-12-18T02:45:17;-9.60;99.90
23089;DHT22;11713;48.506;8.966;2022-12-18T02:47:47;-9.50;99.90
23089;DHT22;11713;48.506;8.966;2022-12-18T02:54:36;-9.60;99.90
23089;DHT22;11713;48.506;8.966;2022-12-18T02:56:50;-9.60;99.90
23089;DHT22;11713;48.506;8.966;2022-12-18T02:59:32;-9.50;99.90
23089;DHT22;11713;48.506;8.966;2022-12-18T03:02:17;-9.60;99.90
23089;DHT22;11713;48.506;8.966;2022-12-18T03:05:01;-9.60;99.90
23089;DHT22;11713;48.506;8.966;2022-12-18T03:07:40;-9.60;99.90
23089;DHT22;11713;48.506;8.966;2022-12-18T03:10:14;-9.50;99.90
23089;DHT22;11713;48.506;8.966;2022-12-18T03:12:51;-9.50;99.90
23089;DHT22;11713;48.506;8.966;2022-12-18T03:15:25;-9.50;99.90
23089;DHT22;11713;48.506;8.966;2022-12-18T03:18:03;-9.50;99.90
23089;DHT22;11713;48.506;8.966;2022-12-18T03:20:32;-9.50;99.90
23089;DHT22;11713;48.506;8.966;2022-12-18T03:23:08;-9.50;99.90
23089;DHT22;11713;48.506;8.966;2022-12-18T03:25:38;-9.40;99.90
23089;DHT22;11713;48.506;8.966;2022-12-18T03:28:06;-9.30;99.90
23089;DHT22;11713;48.506;8.966;2022-12-18T03:30:37;-9.30;99.90
23089;DHT22;11713;48.506;8.966;2022-12-18T03:33:20;-9.20;99.90
23089;DHT22;11713;48.506;8.966;2022-12-18T03:35:50;-9.10;99.90
23089;DHT22;11713;48.506;8.966;2022-12-18T03:38:17;-9.10;99.90
23089;DHT22;11713;48.506;8.966;2022-12-18T03:43:41;-8.90;99.90
23089;DHT22;11713;48.506;8.966;2022-12-18T03:46:20;-8.90;99.90
23089;DHT22;11713;48.506;8.966;2022-12-18T03:49:06;-8.90;99.90
23089;DHT22;11713;48.506;8.966;2022-12-18T03:54:05;-8.80;99.90
23089;DHT22;11713;48.506;8.966;2022-12-18T03:56:43;-8.70;99.90
23089;DHT22;11713;48.506;8.966;2022-12-18T03:59:12;-8.80;99.90
23089;DHT22;11713;48.506;8.966;2022-12-18T04:01:45;-8.80;99.90
23089;DHT22;11713;48.506;8.966;2022-12-18T04:04:14;-8.90;99.90
23089;DHT22;11713;48.506;8.966;2022-12-18T04:06:42;-8.90;99.90
23089;DHT22;11713;48.506;8.966;2022-12-18T04:09:11;-8.90;99.90
23089;DHT22;11713;48.506;8.966;2022-12-18T04:11:42;-9.00;99.90
23089;DHT22;11713;48.506;8.966;2022-12-18T04:14:11;-8.90;99.90
23089;DHT22;11713;48.506;8.966;2022-12-18T04:16:37;-8.90;99.90
23089;DHT22;11713;48.506;8.966;2022-12-18T04:19:05;-8.90;99.90
23089;DHT22;11713;48.506;8.966;2022-12-18T04:21:37;-8.90;99.90
23089;DHT22;11713;48.506;8.966;2022-12-18T04:24:03;-8.90;99.90
23089;DHT22;11713;48.506;8.966;2022-12-18T04:26:30;-9.00;99.90
23089;DHT22;11713;48.506;8.966;2022-12-18T04:29:09;-9.00;99.90
23089;DHT22;11713;48.506;8.966;2022-12-18T04:31:36;-8.90;99.90
23089;DHT22;11713;48.506;8.966;2022-12-18T04:34:02;-8.90;99.90
23089;DHT22;11713;48.506;8.966;2022-12-18T04:36:31;-8.90;99.90
23089;DHT22;11713;48.506;8.966;2022-12-18T04:38:57;-8.80;99.90
23089;DHT22;11713;48.506;8.966;2022-12-18T04:41:23;-8.80;99.90
23089;DHT22;11713;48.506;8.966;2022-12-18T04:43:51;-8.70;99.90
23089;DHT22;11713;48.506;8.966;2022-12-18T04:46:17;-8.70;99.90
23089;DHT22;11713;48.506;8.966;2022-12-18T04:48:45;-8.80;99.90
23089;DHT22;11713;48.506;8.966;2022-12-18T04:51:11;-8.80;99.90
23089;DHT22;11713;48.506;8.966;2022-12-18T04:53:38;-8.80;99.90
23089;DHT22;11713;48.506;8.966;2022-12-18T04:56:11;-8.90;99.90
23089;DHT22;11713;48.506;8.966;2022-12-18T04:58:38;-9.10;99.90
23089;DHT22;11713;48.506;8.966;2022-12-18T05:01:18;-9.10;99.90
23089;DHT22;11713;48.506;8.966;2022-12-18T05:03:44;-9.20;99.90
23089;DHT22;11713;48.506;8.966;2022-12-18T05:06:10;-9.10;99.90
23089;DHT22;11713;48.506;8.966;2022-12-18T05:08:36;-9.10;99.90
23089;DHT22;11713;48.506;8.966;2022-12-18T05:11:05;-9.20;99.90
23089;DHT22;11713;48.506;8.966;2022-12-18T05:13:32;-9.20;99.90
23089;DHT22;11713;48.506;8.966;2022-12-18T05:15:58;-9.20;99.90
23089;DHT22;11713;48.506;8.966;2022-12-18T05:18:25;-9.20;99.90
23089;DHT22;11713;48.506;8.966;2022-12-18T05:20:52;-9.20;99.90
23089;DHT22;11713;48.506;8.966;2022-12-18T05:23:19;-9.10;99.90
23089;DHT22;11713;48.506;8.966;2022-12-18T05:25:51;-9.10;99.90
23089;DHT22;11713;48.506;8.966;2022-12-18T05:28:18;-9.00;99.90
23089;DHT22;11713;48.506;8.966;2022-12-18T05:30:50;-9.10;99.90
23089;DHT22;11713;48.506;8.966;2022-12-18T05:33:16;-9.10;99.90
23089;DHT22;11713;48.506;8.966;2022-12-18T05:35:42;-9.10;99.90
23089;DHT22;11713;48.506;8.966;2022-12-18T05:38:08;-9.10;99.90
23089;DHT22;11713;48.506;8.966;2022-12-18T05:40:34;-9.20;99.90
23089;DHT22;11713;48.506;8.966;2022-12-18T05:43:00;-9.30;99.90
23089;DHT22;11713;48.506;8.966;2022-12-18T05:45:26;-9.30;99.90
23089;DHT22;11713;48.506;8.966;2022-12-18T05:47:52;-9.30;99.90
23089;DHT22;11713;48.506;8.966;2022-12-18T05:50:18;-9.30;99.90
23089;DHT22;11713;48.506;8.966;2022-12-18T05:52:43;-9.30;99.90
23089;DHT22;11713;48.506;8.966;2022-12-18T05:55:09;-9.30;99.90
23089;DHT22;11713;48.506;8.966;2022-12-18T05:57:35;-9.30;99.90
23089;DHT22;11713;48.506;8.966;2022-12-18T06:00:02;-9.40;99.90
23089;DHT22;11713;48.506;8.966;2022-12-18T06:02:37;-9.40;99.90
23089;DHT22;11713;48.506;8.966;2022-12-18T06:05:04;-9.40;99.90
23089;DHT22;11713;48.506;8.966;2022-12-18T06:07:30;-9.40;99.90
23089;DHT22;11713;48.506;8.966;2022-12-18T06:09:56;-9.40;99.90
23089;DHT22;11713;48.506;8.966;2022-12-18T06:12:22;-9.50;99.90
23089;DHT22;11713;48.506;8.966;2022-12-18T06:14:48;-9.50;99.90
23089;DHT22;11713;48.506;8.966;2022-12-18T06:17:13;-9.50;99.90
23089;DHT22;11713;48.506;8.966;2022-12-18T06:19:39;-9.50;99.90
23089;DHT22;11713;48.506;8.966;2022-12-18T06:22:05;-9.70;99.90
23089;DHT22;11713;48.506;8.966;2022-12-18T06:24:31;-9.70;99.90
23089;DHT22;11713;48.506;8.966;2022-12-18T06:26:57;-9.80;99.90
23089;DHT22;11713;48.506;8.966;2022-12-18T06:29:22;-9.80;99.90
23089;DHT22;11713;48.506;8.966;2022-12-18T06:31:48;-9.80;99.90
23089;DHT22;11713;48.506;8.966;2022-12-18T06:34:14;-9.90;99.90
23089;DHT22;11713;48.506;8.966;2022-12-18T06:36:40;-10.00;99.90
23089;DHT22;11713;48.506;8.966;2022-12-18T06:39:06;-10.10;99.90
23089;DHT22;11713;48.506;8.966;2022-12-18T06:41:31;-10.10;99.90
23089;DHT22;11713;48.506;8.966;2022-12-18T06:43:57;-10.30;99.90
23089;DHT22;11713;48.506;8.966;2022-12-18T06:46:23;-10.40;99.90
23089;DHT22;11713;48.506;8.966;2022-12-18T06:48:50;-10.40;99.90
23089;DHT22;11713;48.506;8.966;2022-12-18T06:51:19;-10.50;99.90
23089;DHT22;11713;48.506;8.966;2022-12-18T06:53:46;-10.40;99.90
23089;DHT22;11713;48.506;8.966;2022-12-18T06:56:12;-10.50;99.90
23089;DHT22;11713;48.506;8.966;2022-12-18T06:58:39;-10.50;99.90
23089;DHT22;11713;48.506;8.966;2022-12-18T07:01:09;-10.60;99.90
23089;DHT22;11713;48.506;8.966;2022-12-18T07:06:42;-10.60;99.90
23089;DHT22;11713;48.506;8.966;2022-12-18T07:09:22;-10.80;99.90
23089;DHT22;11713;48.506;8.966;2022-12-18T07:11:48;-10.80;99.90
23089;DHT22;11713;48.506;8.966;2022-12-18T07:14:14;-10.90;99.90
23089;DHT22;11713;48.506;8.966;2022-12-18T07:16:41;-10.90;99.90
23089;DHT22;11713;48.506;8.966;2022-12-18T07:19:10;-11.00;99.90
23089;DHT22;11713;48.506;8.966;2022-12-18T07:21:46;-11.10;99.90
23089;DHT22;11713;48.506;8.966;2022-12-18T07:24:12;-11.20;99.90
23089;DHT22;11713;48.506;8.966;2022-12-18T07:26:38;-11.10;99.90
23089;DHT22;11713;48.506;8.966;2022-12-18T07:29:04;-11.10;99.90
23089;DHT22;11713;48.506;8.966;2022-12-18T07:31:29;-11.00;99.90
23089;DHT22;11713;48.506;8.966;2022-12-18T07:33:56;-11.00;99.90
23089;DHT22;11713;48.506;8.966;2022-12-18T07:36:22;-10.90;99.90
23089;DHT22;11713;48.506;8.966;2022-12-18T07:38:48;-10.90;99.90
23089;DHT22;11713;48.506;8.966;2022-12-18T07:41:14;-10.90;99.90
23089;DHT22;11713;48.506;8.966;2022-12-18T07:43:41;-10.80;99.90
23089;DHT22;11713;48.506;8.966;2022-12-18T07:46:08;-10.70;99.90
23089;DHT22;11713;48.506;8.966;2022-12-18T07:48:34;-10.60;99.90
23089;DHT22;11713;48.506;8.966;2022-12-18T07:51:04;-10.60;99.90
23089;DHT22;11713;48.506;8.966;2022-12-18T07:53:33;-10.50;99.90
23089;DHT22;11713;48.506;8.966;2022-12-18T07:56:05;-10.50;99.90
23089;DHT22;11713;48.506;8.966;2022-12-18T07:58:33;-10.40;99.90
23089;DHT22;11713;48.506;8.966;2022-12-18T08:04:06;-10.20;99.90
23089;DHT22;11713;48.506;8.966;2022-12-18T08:06:32;-10.20;99.90
23089;DHT22;11713;48.506;8.966;2022-12-18T08:08:58;-10.10;99.90
23089;DHT22;11713;48.506;8.966;2022-12-18T08:11:27;-10.10;99.90
23089;DHT22;11713;48.506;8.966;2022-12-18T08:13:54;-10.00;99.90
23089;DHT22;11713;48.506;8.966;2022-12-18T08:16:23;-10.10;99.90
23089;DHT22;11713;48.506;8.966;2022-12-18T08:18:49;-10.10;99.90
23089;DHT22;11713;48.506;8.966;2022-12-18T08:21:23;-10.20;99.90
23089;DHT22;11713;48.506;8.966;2022-12-18T08:23:51;-10.20;99.90
23089;DHT22;11713;48.506;8.966;2022-12-18T08:26:18;-10.20;99.90
23089;DHT22;11713;48.506;8.966;2022-12-18T08:32:11;-10.40;99.90
23089;DHT22;11713;48.506;8.966;2022-12-18T08:34:38;-10.40;99.90
23089;DHT22;11713;48.506;8.966;2022-12-18T08:37:18;-10.30;99.90
23089;DHT22;11713;48.506;8.966;2022-12-18T08:39:44;-10.20;99.90
23089;DHT22;11713;48.506;8.966;2022-12-18T08:42:10;-10.00;99.90
23089;DHT22;11713;48.506;8.966;2022-12-18T08:44:59;-9.90;99.90
23089;DHT22;11713;48.506;8.966;2022-12-18T08:47:24;-9.80;99.90
23089;DHT22;11713;48.506;8.966;2022-12-18T08:49:51;-9.70;99.90
23089;DHT22;11713;48.506;8.966;2022-12-18T08:52:17;-9.60;99.90
23089;DHT22;11713;48.506;8.966;2022-12-18T08:54:43;-9.50;99.90
23089;DHT22;11713;48.506;8.966;2022-12-18T08:57:09;-9.40;99.90
23089;DHT22;11713;48.506;8.966;2022-12-18T08:59:35;-9.30;99.90
23089;DHT22;11713;48.506;8.966;2022-12-18T09:02:00;-9.20;99.90
23089;DHT22;11713;48.506;8.966;2022-12-18T09:04:26;-9.00;99.90
23089;DHT22;11713;48.506;8.966;2022-12-18T09:06:55;-9.10;99.90
23089;DHT22;11713;48.506;8.966;2022-12-18T09:09:21;-9.00;99.90
23089;DHT22;11713;48.506;8.966;2022-12-18T09:11:47;-8.90;99.90
23089;DHT22;11713;48.506;8.966;2022-12-18T09:14:13;-8.80;99.90
23089;DHT22;11713;48.506;8.966;2022-12-18T09:16:39;-8.70;99.90
23089;DHT22;11713;48.506;8.966;2022-12-18T09:19:05;-8.50;99.90
23089;DHT22;11713;48.506;8.966;2022-12-18T09:21:44;-8.40;99.90
23089;DHT22;11713;48.506;8.966;2022-12-18T09:24:13;-8.40;99.90
23089;DHT22;11713;48.506;8.966;2022-12-18T09:26:39;-8.30;99.90
23089;DHT22;11713;48.506;8.966;2022-12-18T09:29:05;-8.20;99.90
23089;DHT22;11713;48.506;8.966;2022-12-18T09:31:33;-8.30;99.90
23089;DHT22;11713;48.506;8.966;2022-12-18T09:33:59;-8.10;99.90
23089;DHT22;11713;48.506;8.966;2022-12-18T09:36:25;-7.90;99.90
23089;DHT22;11713;48.506;8.966;2022-12-18T09:38:51;-7.90;99.90
23089;DHT22;11713;48.506;8.966;2022-12-18T09:41:44;-7.70;99.90
23089;DHT22;11713;48.506;8.966;2022-12-18T09:44:20;-7.60;99.90
23089;DHT22;11713;48.506;8.966;2022-12-18T09:49:24;-7.50;99.90
23089;DHT22;11713;48.506;8.966;2022-12-18T09:52:08;-7.40;99.90
23089;DHT22;11713;48.506;8.966;2022-12-18T09:57:55;-7.50;99.90
23089;DHT22;11713;48.506;8.966;2022-12-18T10:00:24;-7.40;99.90
23089;DHT22;11713;48.506;8.966;2022-12-18T10:02:52;-7.40;99.90
23089;DHT22;11713;48.506;8.966;2022-12-18T10:08:08;-7.40;99.90
23089;DHT22;11713;48.506;8.966;2022-12-18T10:10:51;-7.40;99.90
23089;DHT22;11713;48.506;8.966;2022-12-18T10:13:46;-7.40;99.90
23089;DHT22;11713;48.506;8.966;2022-12-18T10:16:26;-7.20;99.90
23089;DHT22;11713;48.506;8.966;2022-12-18T10:21:32;-6.70;99.90
23089;DHT22;11713;48.506;8.966;2022-12-18T10:27:25;-6.50;99.90
23089;DHT22;11713;48.506;8.966;2022-12-18T10:29:52;-6.40;99.90
23089;DHT22;11713;48.506;8.966;2022-12-18T10:32:21;-6.20;99.90
23089;DHT22;11713;48.506;8.966;2022-12-18T10:34:49;-6.10;99.90
23089;DHT22;11713;48.506;8.966;2022-12-18T10:37:21;-5.90;99.90
23089;DHT22;11713;48.506;8.966;2022-12-18T10:40:12;-5.70;99.90
23089;DHT22;11713;48.506;8.966;2022-12-18T10:42:39;-5.60;99.90
23089;DHT22;11713;48.506;8.966;2022-12-18T10:45:12;-5.50;99.90
23089;DHT22;11713;48.506;8.966;2022-12-18T10:47:50;-5.40;99.90
23089;DHT22;11713;48.506;8.966;2022-12-18T10:53:01;-5.20;99.90
23089;DHT22;11713;48.506;8.966;2022-12-18T10:55:37;-5.10;99.90
23089;DHT22;11713;48.506;8.966;2022-12-18T11:00:42;-5.00;99.90
23089;DHT22;11713;48.506;8.966;2022-12-18T11:08:34;-4.70;99.90
23089;DHT22;11713;48.506;8.966;2022-12-18T11:11:00;-4.60;99.90
23089;DHT22;11713;48.506;8.966;2022-12-18T11:13:28;-4.50;99.90
23089;DHT22;11713;48.506;8.966;2022-12-18T11:15:55;-4.40;99.90
23089;DHT22;11713;48.506;8.966;2022-12-18T11:18:33;-4.30;99.90
23089;DHT22;11713;48.506;8.966;2022-12-18T11:21:08;-4.20;99.90
23089;DHT22;11713;48.506;8.966;2022-12-18T11:23:35;-4.10;99.90
23089;DHT22;11713;48.506;8.966;2022-12-18T11:26:04;-4.00;99.90
23089;DHT22;11713;48.506;8.966;2022-12-18T11:28:39;-3.90;99.90
23089;DHT22;11713;48.506;8.966;2022-12-18T11:31:29;-3.90;99.90
23089;DHT22;11713;48.506;8.966;2022-12-18T11:34:28;-3.70;99.90
23089;DHT22;11713;48.506;8.966;2022-12-18T11:36:55;-3.60;99.90
23089;DHT22;11713;48.506;8.966;2022-12-18T11:44:51;-3.40;99.90
23089;DHT22;11713;48.506;8.966;2022-12-18T11:47:38;-3.30;99.90
23089;DHT22;11713;48.506;8.966;2022-12-18T11:50:16;-3.20;99.90
23089;DHT22;11713;48.506;8.966;2022-12-18T11:52:43;-3.30;99.90
23089;DHT22;11713;48.506;8.966;2022-12-18T12:00:27;-3.00;99.90
23089;DHT22;11713;48.506;8.966;2022-12-18T12:14:09;-3.00;99.90
23089;DHT22;11713;48.506;8.966;2022-12-18T12:19:31;-3.20;99.90
23089;DHT22;11713;48.506;8.966;2022-12-18T12:22:12;-3.20;99.90
23089;DHT22;11713;48.506;8.966;2022-12-18T12:28:06;-3.10;99.90
23089;DHT22;11713;48.506;8.966;2022-12-18T12:36:22;-2.90;99.90
23089;DHT22;11713;48.506;8.966;2022-12-18T12:38:54;-2.80;99.90
23089;DHT22;11713;48.506;8.966;2022-12-18T12:41:27;-2.70;99.90
23089;DHT22;11713;48.506;8.966;2022-12-18T12:44:27;-2.70;99.90
23089;DHT22;11713;48.506;8.966;2022-12-18T12:47:00;-2.60;99.90
23089;DHT22;11713;48.506;8.966;2022-12-18T12:49:31;-2.50;99.90
23089;DHT22;11713;48.506;8.966;2022-12-18T12:52:15;-2.60;99.90
23089;DHT22;11713;48.506;8.966;2022-12-18T12:54:44;-2.60;99.90
23089;DHT22;11713;48.506;8.966;2022-12-18T12:57:30;-2.60;99.90
23089;DHT22;11713;48.506;8.966;2022-12-18T13:00:17;-2.60;99.90
23089;DHT22;11713;48.506;8.966;2022-12-18T13:08:28;-2.40;99.90
23089;DHT22;11713;48.506;8.966;2022-12-18T13:10:58;-2.40;99.90
23089;DHT22;11713;48.506;8.966;2022-12-18T13:14:02;-2.40;99.90
23089;DHT22;11713;48.506;8.966;2022-12-18T13:16:37;-2.50;99.90
23089;DHT22;11713;48.506;8.966;2022-12-18T13:19:18;-2.50;99.90
23089;DHT22;11713;48.506;8.966;2022-12-18T13:21:54;-2.40;99.90
23089;DHT22;11713;48.506;8.966;2022-12-18T13:24:28;-2.40;99.90
23089;DHT22;11713;48.506;8.966;2022-12-18T13:26:56;-2.40;99.90
23089;DHT22;11713;48.506;8.966;2022-12-18T13:29:44;-2.40;99.90
23089;DHT22;11713;48.506;8.966;2022-12-18T13:32:28;-2.50;99.90
23089;DHT22;11713;48.506;8.966;2022-12-18T13:37:53;-2.50;99.90
23089;DHT22;11713;48.506;8.966;2022-12-18T13:46:17;-2.60;99.90
23089;DHT22;11713;48.506;8.966;2022-12-18T13:51:17;-2.70;99.90
23089;DHT22;11713;48.506;8.966;2022-12-18T13:53:50;-2.80;99.90
23089;DHT22;11713;48.506;8.966;2022-12-18T13:56:18;-2.80;99.90
23089;DHT22;11713;48.506;8.966;2022-12-18T13:59:14;-2.80;99.90
23089;DHT22;11713;48.506;8.966;2022-12-18T14:01:57;-2.80;99.90
23089;DHT22;11713;48.506;8.966;2022-12-18T14:04:29;-2.80;99.90
23089;DHT22;11713;48.506;8.966;2022-12-18T14:07:07;-2.80;99.90
23089;DHT22;11713;48.506;8.966;2022-12-18T14:09:41;-2.90;99.90
23089;DHT22;11713;48.506;8.966;2022-12-18T14:12:16;-2.90;99.90
23089;DHT22;11713;48.506;8.966;2022-12-18T14:15:01;-3.00;99.90
23089;DHT22;11713;48.506;8.966;2022-12-18T14:17:28;-3.20;99.90
23089;DHT22;11713;48.506;8.966;2022-12-18T14:19:54;-3.30;99.90
23089;DHT22;11713;48.506;8.966;2022-12-18T14:22:25;-3.50;99.90
23089;DHT22;11713;48.506;8.966;2022-12-18T14:25:15;-3.60;99.90
23089;DHT22;11713;48.506;8.966;2022-12-18T14:27:45;-3.70;99.90
23089;DHT22;11713;48.506;8.966;2022-12-18T14:30:27;-3.80;99.90
23089;DHT22;11713;48.506;8.966;2022-12-18T14:33:20;-3.90;99.90
23089;DHT22;11713;48.506;8.966;2022-12-18T14:36:13;-4.00;99.90
23089;DHT22;11713;48.506;8.966;2022-12-18T14:38:40;-4.10;99.90
23089;DHT22;11713;48.506;8.966;2022-12-18T14:43:38;-4.20;99.90
23089;DHT22;11713;48.506;8.966;2022-12-18T14:46:29;-4.20;99.90
23089;DHT22;11713;48.506;8.966;2022-12-18T14:48:56;-4.20;99.90
23089;DHT22;11713;48.506;8.966;2022-12-18T14:51:25;-4.30;99.90
23089;DHT22;11713;48.506;8.966;2022-12-18T14:53:59;-4.30;99.90
23089;DHT22;11713;48.506;8.966;2022-12-18T14:56:37;-4.30;99.90
23089;DHT22;11713;48.506;8.966;2022-12-18T14:59:17;-4.40;99.90
23089;DHT22;11713;48.506;8.966;2022-12-18T15:04:39;-4.60;99.90
23089;DHT22;11713;48.506;8.966;2022-12-18T15:09:38;-4.70;99.90
23089;DHT22;11713;48.506;8.966;2022-12-18T15:12:04;-4.80;99.90
23089;DHT22;11713;48.506;8.966;2022-12-18T15:14:40;-4.80;99.90
23089;DHT22;11713;48.506;8.966;2022-12-18T15:17:18;-4.90;99.90
23089;DHT22;11713;48.506;8.966;2022-12-18T15:19:46;-5.00;99.90
23089;DHT22;11713;48.506;8.966;2022-12-18T15:22:20;-5.10;99.90
23089;DHT22;11713;48.506;8.966;2022-12-18T15:24:47;-5.10;99.90
23089;DHT22;11713;48.506;8.966;2022-12-18T15:30:01;-5.40;99.90
23089;DHT22;11713;48.506;8.966;2022-12-18T15:32:27;-5.50;99.90
23089;DHT22;11713;48.506;8.966;2022-12-18T15:35:24;-5.50;99.90
23089;DHT22;11713;48.506;8.966;2022-12-18T15:37:49;-5.60;99.90
23089;DHT22;11713;48.506;8.966;2022-12-18T15:40:21;-5.70;99.90
23089;DHT22;11713;48.506;8.966;2022-12-18T15:42:48;-5.80;99.90
23089;DHT22;11713;48.506;8.966;2022-12-18T15:45:33;-5.90;99.90
23089;DHT22;11713;48.506;8.966;2022-12-18T15:47:59;-5.90;99.90
23089;DHT22;11713;48.506;8.966;2022-12-18T15:50:25;-6.00;99.90
23089;DHT22;11713;48.506;8.966;2022-12-18T15:52:52;-6.00;99.90
23089;DHT22;11713;48.506;8.966;2022-12-18T15:55:21;-6.00;99.90
23089;DHT22;11713;48.506;8.966;2022-12-18T15:58:07;-5.90;99.90
23089;DHT22;11713;48.506;8.966;2022-12-18T16:00:35;-6.00;99.90
23089;DHT22;11713;48.506;8.966;2022-12-18T16:03:02;-6.00;99.90
23089;DHT22;11713;48.506;8.966;2022-12-18T16:05:30;-6.00;99.90
23089;DHT22;11713;48.506;8.966;2022-12-18T16:07:56;-6.00;99.90
23089;DHT22;11713;48.506;8.966;2022-12-18T16:10:25;-6.00;99.90
23089;DHT22;11713;48.506;8.966;2022-12-18T16:12:52;-6.10;99.90
23089;DHT22;11713;48.506;8.966;2022-12-18T16:15:18;-6.10;99.90
23089;DHT22;11713;48.506;8.966;2022-12-18T16:17:44;-6.10;99.90
23089;DHT22;11713;48.506;8.966;2022-12-18T16:20:15;-6.10;99.90
23089;DHT22;11713;48.506;8.966;2022-12-18T16:22:42;-6.10;99.90
23089;DHT22;11713;48.506;8.966;2022-12-18T16:25:21;-6.10;99.90
23089;DHT22;11713;48.506;8.966;2022-12-18T16:27:47;-6.10;99.90
23089;DHT22;11713;48.506;8.966;2022-12-18T16:30:20;-6.10;99.90
23089;DHT22;11713;48.506;8.966;2022-12-18T16:32:47;-6.10;99.90
23089;DHT22;11713;48.506;8.966;2022-12-18T16:35:14;-6.00;99.90
23089;DHT22;11713;48.506;8.966;2022-12-18T16:37:41;-6.00;99.90
23089;DHT22;11713;48.506;8.966;2022-12-18T16:40:09;-6.00;99.90
23089;DHT22;11713;48.506;8.966;2022-12-18T16:42:36;-5.90;99.90
23089;DHT22;11713;48.506;8.966;2022-12-18T16:45:05;-5.90;99.90
23089;DHT22;11713;48.506;8.966;2022-12-18T16:47:31;-5.80;99.90
23089;DHT22;11713;48.506;8.966;2022-12-18T16:49:57;-5.70;99.90
23089;DHT22;11713;48.506;8.966;2022-12-18T16:52:23;-5.70;99.90
23089;DHT22;11713;48.506;8.966;2022-12-18T16:54:48;-5.70;99.90
23089;DHT22;11713;48.506;8.966;2022-12-18T16:57:17;-5.70;99.90
23089;DHT22;11713;48.506;8.966;2022-12-18T16:59:45;-5.60;99.90
23089;DHT22;11713;48.506;8.966;2022-12-18T17:02:18;-5.60;99.90
23089;DHT22;11713;48.506;8.966;2022-12-18T17:04:45;-5.60;99.90
23089;DHT22;11713;48.506;8.966;2022-12-18T17:07:11;-5.60;99.90
23089;DHT22;11713;48.506;8.966;2022-12-18T17:09:38;-5.60;99.90
23089;DHT22;11713;48.506;8.966;2022-12-18T17:12:04;-5.50;99.90
23089;DHT22;11713;48.506;8.966;2022-12-18T17:14:31;-5.40;99.90
23089;DHT22;11713;48.506;8.966;2022-12-18T17:16:57;-5.40;99.90
23089;DHT22;11713;48.506;8.966;2022-12-18T17:19:25;-5.40;99.90
23089;DHT22;11713;48.506;8.966;2022-12-18T17:21:52;-5.40;99.90
23089;DHT22;11713;48.506;8.966;2022-12-18T17:24:18;-5.40;99.90
23089;DHT22;11713;48.506;8.966;2022-12-18T17:26:45;-5.30;99.90
23089;DHT22;11713;48.506;8.966;2022-12-18T17:29:18;-5.30;99.90
23089;DHT22;11713;48.506;8.966;2022-12-18T17:31:45;-5.30;99.90
23089;DHT22;11713;48.506;8.966;2022-12-18T17:34:12;-5.30;99.90
23089;DHT22;11713;48.506;8.966;2022-12-18T17:36:38;-5.30;99.90
23089;DHT22;11713;48.506;8.966;2022-12-18T17:39:06;-5.30;99.90
23089;DHT22;11713;48.506;8.966;2022-12-18T17:41:32;-5.30;99.90
23089;DHT22;11713;48.506;8.966;2022-12-18T17:44:03;-5.30;99.90
23089;DHT22;11713;48.506;8.966;2022-12-18T17:46:32;-5.20;99.90
23089;DHT22;11713;48.506;8.966;2022-12-18T17:48:59;-5.20;99.90
23089;DHT22;11713;48.506;8.966;2022-12-18T17:51:26;-5.20;99.90
23089;DHT22;11713;48.506;8.966;2022-12-18T17:53:53;-5.20;99.90
23089;DHT22;11713;48.506;8.966;2022-12-18T17:56:21;-5.10;99.90
23089;DHT22;11713;48.506;8.966;2022-12-18T17:58:47;-5.10;99.90